sensor_id;sensor_type;location;lat;lon;timestamp;temperature;humidity
84435;SHT30;74664;45.620;5.138;2024-03-02T00:00:51;10.59;52.52
84435;SHT30;74664;45.620;5.138;2024-03-02T00:03:18;10.57;52.64
84435;SHT30;74664;45.620;5.138;2024-03-02T00:05:49;10.56;52.64
84435;SHT30;74664;45.620;5.138;2024-03-02T00:08:22;10.57;52.63
84435;SHT30;74664;45.620;5.138;2024-03-02T00:10:57;10.56;52.52
84435;SHT30;74664;45.620;5.138;2024-03-02T00:13:24;10.54;52.47
84435;SHT30;74664;45.620;5.138;2024-03-02T00:15:52;10.54;52.60
84435;SHT30;74664;45.620;5.138;2024-03-02T00:18:25;10.54;52.44
84435;SHT30;74664;45.620;5.138;2024-03-02T00:20:55;10.53;52.71
84435;SHT30;74664;45.620;5.138;2024-03-02T00:23:23;10.54;52.81
84435;SHT30;74664;45.620;5.138;2024-03-02T00:25:52;10.54;52.79
84435;SHT30;74664;45.620;5.138;2024-03-02T00:28:21;10.53;52.87
84435;SHT30;74664;45.620;5.138;2024-03-02T00:30:58;10.53;52.94
84435;SHT30;74664;45.620;5.138;2024-03-02T00:33:31;10.53;53.00
84435;SHT30;74664;45.620;5.138;2024-03-02T00:35:59;10.51;53.12
84435;SHT30;74664;45.620;5.138;2024-03-02T00:38:26;10.54;53.12
84435;SHT30;74664;45.620;5.138;2024-03-02T00:40:56;10.54;53.20
84435;SHT30;74664;45.620;5.138;2024-03-02T00:43:52;10.57;53.23
84435;SHT30;74664;45.620;5.138;2024-03-02T00:46:21;10.54;53.26
84435;SHT30;74664;45.620;5.138;2024-03-02T00:48:53;10.56;53.28
84435;SHT30;74664;45.620;5.138;2024-03-02T00:51:21;10.57;53.24
84435;SHT30;74664;45.620;5.138;2024-03-02T00:53:48;10.60;53.25
84435;SHT30;74664;45.620;5.138;2024-03-02T00:56:17;10.63;53.30
84435;SHT30;74664;45.620;5.138;2024-03-02T00:58:44;10.64;53.34
84435;SHT30;74664;45.620;5.138;2024-03-02T01:01:10;10.65;53.36
84435;SHT30;74664;45.620;5.138;2024-03-02T01:03:37;10.65;53.46
84435;SHT30;74664;45.620;5.138;2024-03-02T01:06:06;10.65;53.43
84435;SHT30;74664;45.620;5.138;2024-03-02T01:08:34;10.67;53.42
84435;SHT30;74664;45.620;5.138;2024-03-02T01:11:01;10.67;53.40
84435;SHT30;74664;45.620;5.138;2024-03-02T01:13:29;10.68;53.44
84435;SHT30;74664;45.620;5.138;2024-03-02T01:15:56;10.70;53.42
84435;SHT30;74664;45.620;5.138;2024-03-02T01:18:23;10.68;53.46
84435;SHT30;74664;45.620;5.138;2024-03-02T01:20:50;10.68;53.44
84435;SHT30;74664;45.620;5.138;2024-03-02T01:23:18;10.73;53.46
84435;SHT30;74664;45.620;5.138;2024-03-02T01:25:46;10.70;53.41
84435;SHT30;74664;45.620;5.138;2024-03-02T01:28:12;10.73;53.35
84435;SHT30;74664;45.620;5.138;2024-03-02T01:30:41;10.71;53.41
84435;SHT30;74664;45.620;5.138;2024-03-02T01:33:08;10.71;53.47
84435;SHT30;74664;45.620;5.138;2024-03-02T01:35:35;10.73;53.44
84435;SHT30;74664;45.620;5.138;2024-03-02T01:38:03;10.75;53.53
84435;SHT30;74664;45.620;5.138;2024-03-02T01:40:31;10.73;53.54
84435;SHT30;74664;45.620;5.138;2024-03-02T01:42:58;10.73;53.57
84435;SHT30;74664;45.620;5.138;2024-03-02T01:45:25;10.71;53.64
84435;SHT30;74664;45.620;5.138;2024-03-02T01:47:53;10.75;53.62
84435;SHT30;74664;45.620;5.138;2024-03-02T01:50:27;10.75;53.73
84435;SHT30;74664;45.620;5.138;2024-03-02T01:52:54;10.75;53.72
84435;SHT30;74664;45.620;5.138;2024-03-02T01:55:21;10.75;53.83
84435;SHT30;74664;45.620;5.138;2024-03-02T01:57:48;10.77;53.87
84435;SHT30;74664;45.620;5.138;2024-03-02T02:00:16;10.77;53.86
84435;SHT30;74664;45.620;5.138;2024-03-02T02:02:46;10.77;53.92
84435;SHT30;74664;45.620;5.138;2024-03-02T02:05:15;10.81;53.92
84435;SHT30;74664;45.620;5.138;2024-03-02T02:07:42;10.80;54.00
84435;SHT30;74664;45.620;5.138;2024-03-02T02:10:09;10.81;54.08
84435;SHT30;74664;45.620;5.138;2024-03-02T02:12:36;10.80;54.09
84435;SHT30;74664;45.620;5.138;2024-03-02T02:15:04;10.82;54.11
84435;SHT30;74664;45.620;5.138;2024-03-02T02:17:31;10.82;54.17
84435;SHT30;74664;45.620;5.138;2024-03-02T02:19:59;10.84;54.28
84435;SHT30;74664;45.620;5.138;2024-03-02T02:22:27;10.85;54.29
84435;SHT30;74664;45.620;5.138;2024-03-02T02:24:55;10.84;54.38
84435;SHT30;74664;45.620;5.138;2024-03-02T02:27:22;10.85;54.43
84435;SHT30;74664;45.620;5.138;2024-03-02T02:29:48;10.85;54.42
84435;SHT30;74664;45.620;5.138;2024-03-02T02:32:15;10.84;54.50
84435;SHT30;74664;45.620;5.138;2024-03-02T02:34:42;10.88;54.51
84435;SHT30;74664;45.620;5.138;2024-03-02T02:37:09;10.87;54.55
84435;SHT30;74664;45.620;5.138;2024-03-02T02:39:37;10.87;54.57
84435;SHT30;74664;45.620;5.138;2024-03-02T02:42:04;10.87;54.58
84435;SHT30;74664;45.620;5.138;2024-03-02T02:44:31;10.90;54.60
84435;SHT30;74664;45.620;5.138;2024-03-02T02:46:57;10.85;54.61
84435;SHT30;74664;45.620;5.138;2024-03-02T02:49:24;10.87;54.61
84435;SHT30;74664;45.620;5.138;2024-03-02T02:51:52;10.88;54.67
84435;SHT30;74664;45.620;5.138;2024-03-02T02:54:18;10.88;54.70
84435;SHT30;74664;45.620;5.138;2024-03-02T02:56:48;10.88;54.75
84435;SHT30;74664;45.620;5.138;2024-03-02T02:59:18;10.87;54.82
84435;SHT30;74664;45.620;5.138;2024-03-02T03:01:44;10.91;54.91
84435;SHT30;74664;45.620;5.138;2024-03-02T03:04:11;10.91;54.93
84435;SHT30;74664;45.620;5.138;2024-03-02T03:06:38;10.94;54.97
84435;SHT30;74664;45.620;5.138;2024-03-02T03:09:05;10.91;54.97
84435;SHT30;74664;45.620;5.138;2024-03-02T03:11:31;10.92;55.06
84435;SHT30;74664;45.620;5.138;2024-03-02T03:14:00;10.92;55.05
84435;SHT30;74664;45.620;5.138;2024-03-02T03:16:27;10.92;55.07
84435;SHT30;74664;45.620;5.138;2024-03-02T03:18:53;10.94;55.11
84435;SHT30;74664;45.620;5.138;2024-03-02T03:21:20;10.95;55.13
84435;SHT30;74664;45.620;5.138;2024-03-02T03:23:47;10.95;55.16
84435;SHT30;74664;45.620;5.138;2024-03-02T03:26:13;10.95;55.27
84435;SHT30;74664;45.620;5.138;2024-03-02T03:28:42;10.94;55.29
84435;SHT30;74664;45.620;5.138;2024-03-02T03:31:10;10.95;55.39
84435;SHT30;74664;45.620;5.138;2024-03-02T03:33:37;10.98;55.46
84435;SHT30;74664;45.620;5.138;2024-03-02T03:36:04;10.97;55.50
84435;SHT30;74664;45.620;5.138;2024-03-02T03:38:31;10.97;55.66
84435;SHT30;74664;45.620;5.138;2024-03-02T03:40:57;10.94;55.66
84435;SHT30;74664;45.620;5.138;2024-03-02T03:43:24;10.95;55.73
84435;SHT30;74664;45.620;5.138;2024-03-02T03:45:51;10.97;55.80
84435;SHT30;74664;45.620;5.138;2024-03-02T03:48:19;10.95;55.86
84435;SHT30;74664;45.620;5.138;2024-03-02T03:50:46;10.97;55.93
84435;SHT30;74664;45.620;5.138;2024-03-02T03:53:12;10.94;56.00
84435;SHT30;74664;45.620;5.138;2024-03-02T03:55:40;10.97;56.03
84435;SHT30;74664;45.620;5.138;2024-03-02T03:58:06;10.95;56.16
84435;SHT30;74664;45.620;5.138;2024-03-02T04:00:36;10.95;56.17
84435;SHT30;74664;45.620;5.138;2024-03-02T04:03:04;10.95;56.26
84435;SHT30;74664;45.620;5.138;2024-03-02T04:05:33;10.98;56.31
84435;SHT30;74664;45.620;5.138;2024-03-02T04:07:59;10.95;56.39
84435;SHT30;74664;45.620;5.138;2024-03-02T04:10:26;10.98;56.38
84435;SHT30;74664;45.620;5.138;2024-03-02T04:12:53;10.97;56.45
84435;SHT30;74664;45.620;5.138;2024-03-02T04:15:20;11.00;56.47
84435;SHT30;74664;45.620;5.138;2024-03-02T04:17:48;10.97;56.49
84435;SHT30;74664;45.620;5.138;2024-03-02T04:20:15;11.00;56.54
84435;SHT30;74664;45.620;5.138;2024-03-02T04:22:43;11.00;56.55
84435;SHT30;74664;45.620;5.138;2024-03-02T04:25:09;10.97;56.62
84435;SHT30;74664;45.620;5.138;2024-03-02T04:27:39;10.98;56.63
84435;SHT30;74664;45.620;5.138;2024-03-02T04:30:06;10.97;56.61
84435;SHT30;74664;45.620;5.138;2024-03-02T04:32:33;10.98;56.58
84435;SHT30;74664;45.620;5.138;2024-03-02T04:35:01;11.00;56.66
84435;SHT30;74664;45.620;5.138;2024-03-02T04:37:28;11.00;56.70
84435;SHT30;74664;45.620;5.138;2024-03-02T04:39:56;11.01;56.70
84435;SHT30;74664;45.620;5.138;2024-03-02T04:42:22;10.98;56.79
84435;SHT30;74664;45.620;5.138;2024-03-02T04:44:50;10.98;56.81
84435;SHT30;74664;45.620;5.138;2024-03-02T04:47:16;10.98;56.95
84435;SHT30;74664;45.620;5.138;2024-03-02T04:49:43;10.97;57.00
84435;SHT30;74664;45.620;5.138;2024-03-02T04:52:13;10.97;57.05
84435;SHT30;74664;45.620;5.138;2024-03-02T04:54:40;10.94;57.08
84435;SHT30;74664;45.620;5.138;2024-03-02T04:57:21;10.94;57.11
84435;SHT30;74664;45.620;5.138;2024-03-02T04:59:48;10.92;57.18
84435;SHT30;74664;45.620;5.138;2024-03-02T05:02:15;10.92;57.20
84435;SHT30;74664;45.620;5.138;2024-03-02T05:04:41;10.91;57.30
84435;SHT30;74664;45.620;5.138;2024-03-02T05:07:08;10.88;57.37
84435;SHT30;74664;45.620;5.138;2024-03-02T05:09:35;10.90;57.35
84435;SHT30;74664;45.620;5.138;2024-03-02T05:12:02;10.88;57.39
84435;SHT30;74664;45.620;5.138;2024-03-02T05:14:50;10.90;57.49
84435;SHT30;74664;45.620;5.138;2024-03-02T05:17:16;10.88;57.47
84435;SHT30;74664;45.620;5.138;2024-03-02T05:19:43;10.88;57.50
84435;SHT30;74664;45.620;5.138;2024-03-02T05:22:10;10.87;57.56
84435;SHT30;74664;45.620;5.138;2024-03-02T05:24:36;10.87;57.53
84435;SHT30;74664;45.620;5.138;2024-03-02T05:27:03;10.87;57.61
84435;SHT30;74664;45.620;5.138;2024-03-02T05:29:31;10.87;57.60
84435;SHT30;74664;45.620;5.138;2024-03-02T05:32:00;10.87;57.76
84435;SHT30;74664;45.620;5.138;2024-03-02T05:34:26;10.87;57.73
84435;SHT30;74664;45.620;5.138;2024-03-02T05:36:53;10.88;57.75
84435;SHT30;74664;45.620;5.138;2024-03-02T05:39:20;10.87;57.79
84435;SHT30;74664;45.620;5.138;2024-03-02T05:41:46;10.87;57.71
84435;SHT30;74664;45.620;5.138;2024-03-02T05:44:13;10.85;57.78
84435;SHT30;74664;45.620;5.138;2024-03-02T05:46:40;10.85;57.84
84435;SHT30;74664;45.620;5.138;2024-03-02T05:49:09;10.82;57.85
84435;SHT30;74664;45.620;5.138;2024-03-02T05:51:36;10.84;57.85
84435;SHT30;74664;45.620;5.138;2024-03-02T05:54:03;10.80;57.94
84435;SHT30;74664;45.620;5.138;2024-03-02T05:56:30;10.84;58.00
84435;SHT30;74664;45.620;5.138;2024-03-02T05:58:57;10.81;58.05
84435;SHT30;74664;45.620;5.138;2024-03-02T06:01:34;10.84;58.02
84435;SHT30;74664;45.620;5.138;2024-03-02T06:04:00;10.82;58.05
84435;SHT30;74664;45.620;5.138;2024-03-02T06:06:28;10.84;58.17
84435;SHT30;74664;45.620;5.138;2024-03-02T06:08:55;10.81;58.17
84435;SHT30;74664;45.620;5.138;2024-03-02T06:11:22;10.81;58.20
84435;SHT30;74664;45.620;5.138;2024-03-02T06:13:50;10.82;58.22
84435;SHT30;74664;45.620;5.138;2024-03-02T06:16:16;10.82;58.32
84435;SHT30;74664;45.620;5.138;2024-03-02T06:18:45;10.82;58.22
84435;SHT30;74664;45.620;5.138;2024-03-02T06:21:12;10.85;58.32
84435;SHT30;74664;45.620;5.138;2024-03-02T06:23:41;10.82;58.38
84435;SHT30;74664;45.620;5.138;2024-03-02T06:26:08;10.82;58.44
84435;SHT30;74664;45.620;5.138;2024-03-02T06:28:34;10.85;58.48
84435;SHT30;74664;45.620;5.138;2024-03-02T06:31:01;10.84;58.58
84435;SHT30;74664;45.620;5.138;2024-03-02T06:33:28;10.85;58.51
84435;SHT30;74664;45.620;5.138;2024-03-02T06:35:56;10.85;58.57
84435;SHT30;74664;45.620;5.138;2024-03-02T06:38:23;10.88;58.63
84435;SHT30;74664;45.620;5.138;2024-03-02T06:40:51;10.85;58.70
84435;SHT30;74664;45.620;5.138;2024-03-02T06:43:18;10.88;58.68
84435;SHT30;74664;45.620;5.138;2024-03-02T06:45:48;10.88;58.73
84435;SHT30;74664;45.620;5.138;2024-03-02T06:48:15;10.88;58.79
84435;SHT30;74664;45.620;5.138;2024-03-02T06:50:45;10.88;58.66
84435;SHT30;74664;45.620;5.138;2024-03-02T06:53:12;10.88;58.87
84435;SHT30;74664;45.620;5.138;2024-03-02T06:55:38;10.88;58.88
84435;SHT30;74664;45.620;5.138;2024-03-02T06:58:06;10.90;58.83
84435;SHT30;74664;45.620;5.138;2024-03-02T07:00:33;10.94;58.86
84435;SHT30;74664;45.620;5.138;2024-03-02T07:03:00;10.95;58.96
84435;SHT30;74664;45.620;5.138;2024-03-02T07:05:27;10.95;59.06
84435;SHT30;74664;45.620;5.138;2024-03-02T07:07:54;10.95;58.99
84435;SHT30;74664;45.620;5.138;2024-03-02T07:10:21;10.98;59.11
84435;SHT30;74664;45.620;5.138;2024-03-02T07:12:48;10.98;59.18
84435;SHT30;74664;45.620;5.138;2024-03-02T07:15:16;11.00;59.13
84435;SHT30;74664;45.620;5.138;2024-03-02T07:18:02;11.02;59.10
84435;SHT30;74664;45.620;5.138;2024-03-02T07:20:29;11.04;59.10
84435;SHT30;74664;45.620;5.138;2024-03-02T07:22:56;11.05;59.10
84435;SHT30;74664;45.620;5.138;2024-03-02T07:25:23;11.05;59.14
84435;SHT30;74664;45.620;5.138;2024-03-02T07:27:50;11.10;59.18
84435;SHT30;74664;45.620;5.138;2024-03-02T07:30:19;11.10;59.21
84435;SHT30;74664;45.620;5.138;2024-03-02T07:32:49;11.10;59.24
84435;SHT30;74664;45.620;5.138;2024-03-02T07:35:16;11.14;59.15
84435;SHT30;74664;45.620;5.138;2024-03-02T07:37:43;11.14;59.15
84435;SHT30;74664;45.620;5.138;2024-03-02T07:40:11;11.18;59.16
84435;SHT30;74664;45.620;5.138;2024-03-02T07:42:38;11.18;59.09
84435;SHT30;74664;45.620;5.138;2024-03-02T07:45:06;11.18;59.07
84435;SHT30;74664;45.620;5.138;2024-03-02T07:47:34;11.21;59.13
84435;SHT30;74664;45.620;5.138;2024-03-02T07:50:02;11.22;59.02
84435;SHT30;74664;45.620;5.138;2024-03-02T07:52:31;11.22;59.02
84435;SHT30;74664;45.620;5.138;2024-03-02T07:54:58;11.22;59.10
84435;SHT30;74664;45.620;5.138;2024-03-02T07:57:24;11.22;59.07
84435;SHT30;74664;45.620;5.138;2024-03-02T07:59:52;11.25;59.04
84435;SHT30;74664;45.620;5.138;2024-03-02T08:02:19;11.28;59.05
84435;SHT30;74664;45.620;5.138;2024-03-02T08:04:48;11.29;58.99
84435;SHT30;74664;45.620;5.138;2024-03-02T08:07:15;11.28;58.82
84435;SHT30;74664;45.620;5.138;2024-03-02T08:09:42;11.29;58.85
84435;SHT30;74664;45.620;5.138;2024-03-02T08:12:09;11.29;58.86
84435;SHT30;74664;45.620;5.138;2024-03-02T08:14:35;11.31;58.83
84435;SHT30;74664;45.620;5.138;2024-03-02T08:17:02;11.31;58.85
84435;SHT30;74664;45.620;5.138;2024-03-02T08:19:35;11.33;58.86
84435;SHT30;74664;45.620;5.138;2024-03-02T08:22:03;11.35;58.86
84435;SHT30;74664;45.620;5.138;2024-03-02T08:24:30;11.38;58.90
84435;SHT30;74664;45.620;5.138;2024-03-02T08:26:57;11.38;58.83
84435;SHT30;74664;45.620;5.138;2024-03-02T08:29:24;11.39;58.81
84435;SHT30;74664;45.620;5.138;2024-03-02T08:31:51;11.42;58.83
84435;SHT30;74664;45.620;5.138;2024-03-02T08:34:17;11.43;58.78
84435;SHT30;74664;45.620;5.138;2024-03-02T08:36:44;11.46;58.80
84435;SHT30;74664;45.620;5.138;2024-03-02T08:39:12;11.46;58.75
84435;SHT30;74664;45.620;5.138;2024-03-02T08:41:41;11.47;58.71
84435;SHT30;74664;45.620;5.138;2024-03-02T08:44:08;11.50;58.64
84435;SHT30;74664;45.620;5.138;2024-03-02T08:46:35;11.53;58.64
84435;SHT30;74664;45.620;5.138;2024-03-02T08:49:02;11.55;58.59
84435;SHT30;74664;45.620;5.138;2024-03-02T08:51:29;11.56;58.55
84435;SHT30;74664;45.620;5.138;2024-03-02T08:53:57;11.59;58.54
84435;SHT30;74664;45.620;5.138;2024-03-02T08:56:25;11.59;58.43
84435;SHT30;74664;45.620;5.138;2024-03-02T08:58:52;11.60;58.45
84435;SHT30;74664;45.620;5.138;2024-03-02T09:01:19;11.63;58.44
84435;SHT30;74664;45.620;5.138;2024-03-02T09:03:46;11.63;58.35
84435;SHT30;74664;45.620;5.138;2024-03-02T09:06:14;11.66;58.39
84435;SHT30;74664;45.620;5.138;2024-03-02T09:08:42;11.67;58.30
84435;SHT30;74664;45.620;5.138;2024-03-02T09:11:09;11.73;58.33
84435;SHT30;74664;45.620;5.138;2024-03-02T09:13:38;11.77;58.31
84435;SHT30;74664;45.620;5.138;2024-03-02T09:16:05;11.83;58.28
84435;SHT30;74664;45.620;5.138;2024-03-02T09:18:32;11.84;58.41
84435;SHT30;74664;45.620;5.138;2024-03-02T09:23:01;11.93;58.17
84435;SHT30;74664;45.620;5.138;2024-03-02T09:25:28;11.95;58.13
84435;SHT30;74664;45.620;5.138;2024-03-02T09:27:54;12.00;58.05
84435;SHT30;74664;45.620;5.138;2024-03-02T09:30:21;12.01;57.98
84435;SHT30;74664;45.620;5.138;2024-03-02T09:32:48;12.02;57.96
84435;SHT30;74664;45.620;5.138;2024-03-02T09:35:15;12.04;57.96
84435;SHT30;74664;45.620;5.138;2024-03-02T09:37:42;12.07;57.88
84435;SHT30;74664;45.620;5.138;2024-03-02T09:40:11;12.11;57.85
84435;SHT30;74664;45.620;5.138;2024-03-02T09:42:38;12.07;57.83
84435;SHT30;74664;45.620;5.138;2024-03-02T09:45:06;12.11;57.76
84435;SHT30;74664;45.620;5.138;2024-03-02T09:47:33;12.13;57.73
84435;SHT30;74664;45.620;5.138;2024-03-02T09:49:59;12.17;57.80
84435;SHT30;74664;45.620;5.138;2024-03-02T09:52:26;12.18;57.80
84435;SHT30;74664;45.620;5.138;2024-03-02T09:54:53;12.22;57.76
84435;SHT30;74664;45.620;5.138;2024-03-02T09:57:21;12.28;57.78
84435;SHT30;74664;45.620;5.138;2024-03-02T09:59:48;12.31;57.79
84435;SHT30;74664;45.620;5.138;2024-03-02T10:02:14;12.37;57.67
84435;SHT30;74664;45.620;5.138;2024-03-02T10:04:41;12.39;57.63
84435;SHT30;74664;45.620;5.138;2024-03-02T10:07:11;12.46;57.60
84435;SHT30;74664;45.620;5.138;2024-03-02T10:09:38;12.52;57.52
84435;SHT30;74664;45.620;5.138;2024-03-02T10:12:06;12.56;57.47
84435;SHT30;74664;45.620;5.138;2024-03-02T10:14:35;12.60;57.34
84435;SHT30;74664;45.620;5.138;2024-03-02T10:17:02;12.69;57.28
84435;SHT30;74664;45.620;5.138;2024-03-02T10:19:30;12.78;57.22
84435;SHT30;74664;45.620;5.138;2024-03-02T10:21:58;12.88;57.12
84435;SHT30;74664;45.620;5.138;2024-03-02T10:24:25;12.96;56.91
84435;SHT30;74664;45.620;5.138;2024-03-02T10:26:52;13.04;57.03
84435;SHT30;74664;45.620;5.138;2024-03-02T10:29:19;13.13;56.93
84435;SHT30;74664;45.620;5.138;2024-03-02T10:31:47;13.24;56.90
84435;SHT30;74664;45.620;5.138;2024-03-02T10:34:14;13.34;56.80
84435;SHT30;74664;45.620;5.138;2024-03-02T10:36:42;13.41;56.52
84435;SHT30;74664;45.620;5.138;2024-03-02T10:39:09;13.48;56.31
84435;SHT30;74664;45.620;5.138;2024-03-02T10:41:37;13.57;56.14
84435;SHT30;74664;45.620;5.138;2024-03-02T10:44:05;13.67;55.83
84435;SHT30;74664;45.620;5.138;2024-03-02T10:46:33;13.77;55.92
84435;SHT30;74664;45.620;5.138;2024-03-02T10:49:02;13.86;55.75
84435;SHT30;74664;45.620;5.138;2024-03-02T10:51:30;13.96;55.46
84435;SHT30;74664;45.620;5.138;2024-03-02T10:56:31;14.08;55.26
84435;SHT30;74664;45.620;5.138;2024-03-02T10:59:02;14.17;55.28
84435;SHT30;74664;45.620;5.138;2024-03-02T11:01:31;14.23;55.33
84435;SHT30;74664;45.620;5.138;2024-03-02T11:03:59;14.32;55.34
84435;SHT30;74664;45.620;5.138;2024-03-02T11:06:28;14.33;55.01
84435;SHT30;74664;45.620;5.138;2024-03-02T11:08:58;14.38;54.90
84435;SHT30;74664;45.620;5.138;2024-03-02T11:11:32;14.44;54.63
84435;SHT30;74664;45.620;5.138;2024-03-02T11:14:01;14.53;54.78
84435;SHT30;74664;45.620;5.138;2024-03-02T11:16:34;14.59;54.07
84435;SHT30;74664;45.620;5.138;2024-03-02T11:19:03;14.68;54.25
84435;SHT30;74664;45.620;5.138;2024-03-02T11:21:31;14.77;53.69
84435;SHT30;74664;45.620;5.138;2024-03-02T11:23:58;14.81;53.44
84435;SHT30;74664;45.620;5.138;2024-03-02T11:26:25;14.88;53.56
84435;SHT30;74664;45.620;5.138;2024-03-02T11:28:55;14.95;53.66
84435;SHT30;74664;45.620;5.138;2024-03-02T11:31:58;14.99;53.23
84435;SHT30;74664;45.620;5.138;2024-03-02T11:34:29;15.05;52.89
84435;SHT30;74664;45.620;5.138;2024-03-02T11:36:56;15.09;52.87
84435;SHT30;74664;45.620;5.138;2024-03-02T11:39:24;15.14;52.74
84435;SHT30;74664;45.620;5.138;2024-03-02T11:41:51;15.22;52.97
84435;SHT30;74664;45.620;5.138;2024-03-02T11:44:19;15.25;52.52
84435;SHT30;74664;45.620;5.138;2024-03-02T11:46:51;15.26;52.25
84435;SHT30;74664;45.620;5.138;2024-03-02T11:49:37;15.29;52.51
84435;SHT30;74664;45.620;5.138;2024-03-02T11:52:06;15.31;52.11
84435;SHT30;74664;45.620;5.138;2024-03-02T11:54:33;15.31;52.05
84435;SHT30;74664;45.620;5.138;2024-03-02T11:57:02;15.35;51.92
84435;SHT30;74664;45.620;5.138;2024-03-02T11:59:30;15.38;51.65
84435;SHT30;74664;45.620;5.138;2024-03-02T12:01:57;15.40;51.59
84435;SHT30;74664;45.620;5.138;2024-03-02T12:04:25;15.45;51.57
84435;SHT30;74664;45.620;5.138;2024-03-02T12:06:54;15.49;51.54
84435;SHT30;74664;45.620;5.138;2024-03-02T12:09:22;15.56;51.46
84435;SHT30;74664;45.620;5.138;2024-03-02T12:12:01;15.60;51.16
84435;SHT30;74664;45.620;5.138;2024-03-02T12:14:30;15.63;50.90
84435;SHT30;74664;45.620;5.138;2024-03-02T12:16:57;15.66;51.00
84435;SHT30;74664;45.620;5.138;2024-03-02T12:19:25;15.69;50.94
84435;SHT30;74664;45.620;5.138;2024-03-02T12:21:52;15.73;50.87
84435;SHT30;74664;45.620;5.138;2024-03-02T12:24:20;15.70;50.75
84435;SHT30;74664;45.620;5.138;2024-03-02T12:26:47;15.73;50.41
84435;SHT30;74664;45.620;5.138;2024-03-02T12:29:14;15.71;50.25
84435;SHT30;74664;45.620;5.138;2024-03-02T12:31:43;15.69;50.22
84435;SHT30;74664;45.620;5.138;2024-03-02T12:34:12;15.69;50.45
84435;SHT30;74664;45.620;5.138;2024-03-02T12:36:40;15.67;50.49
84435;SHT30;74664;45.620;5.138;2024-03-02T12:39:07;15.71;50.27
84435;SHT30;74664;45.620;5.138;2024-03-02T12:41:38;15.76;50.31
84435;SHT30;74664;45.620;5.138;2024-03-02T12:44:05;15.77;50.05
84435;SHT30;74664;45.620;5.138;2024-03-02T12:46:34;15.83;50.27
84435;SHT30;74664;45.620;5.138;2024-03-02T12:49:08;15.90;50.09
84435;SHT30;74664;45.620;5.138;2024-03-02T12:51:36;15.97;49.96
84435;SHT30;74664;45.620;5.138;2024-03-02T12:54:03;16.00;49.92
84435;SHT30;74664;45.620;5.138;2024-03-02T12:56:31;16.03;49.20
84435;SHT30;74664;45.620;5.138;2024-03-02T12:58:58;16.07;49.30
84435;SHT30;74664;45.620;5.138;2024-03-02T13:01:25;16.10;48.93
84435;SHT30;74664;45.620;5.138;2024-03-02T13:03:53;16.10;49.33
84435;SHT30;74664;45.620;5.138;2024-03-02T13:06:22;16.10;48.92
84435;SHT30;74664;45.620;5.138;2024-03-02T13:08:50;16.15;48.90
84435;SHT30;74664;45.620;5.138;2024-03-02T13:11:18;16.18;49.35
84435;SHT30;74664;45.620;5.138;2024-03-02T13:13:45;16.21;49.18
84435;SHT30;74664;45.620;5.138;2024-03-02T13:16:12;16.22;48.88
84435;SHT30;74664;45.620;5.138;2024-03-02T13:18:41;16.25;49.08
84435;SHT30;74664;45.620;5.138;2024-03-02T13:21:08;16.26;48.62
84435;SHT30;74664;45.620;5.138;2024-03-02T13:23:36;16.28;48.65
84435;SHT30;74664;45.620;5.138;2024-03-02T13:26:03;16.31;48.81
84435;SHT30;74664;45.620;5.138;2024-03-02T13:28:30;16.34;48.76
84435;SHT30;74664;45.620;5.138;2024-03-02T13:30:57;16.34;48.56
84435;SHT30;74664;45.620;5.138;2024-03-02T13:33:23;16.32;48.04
84435;SHT30;74664;45.620;5.138;2024-03-02T13:35:50;16.29;47.85
84435;SHT30;74664;45.620;5.138;2024-03-02T13:38:44;16.25;48.15
84435;SHT30;74664;45.620;5.138;2024-03-02T13:41:30;16.21;48.40
84435;SHT30;74664;45.620;5.138;2024-03-02T13:43:56;16.24;47.53
84435;SHT30;74664;45.620;5.138;2024-03-02T13:46:29;16.22;47.83
84435;SHT30;74664;45.620;5.138;2024-03-02T13:48:55;16.22;48.18
84435;SHT30;74664;45.620;5.138;2024-03-02T13:51:22;16.15;47.93
84435;SHT30;74664;45.620;5.138;2024-03-02T13:53:52;16.17;48.19
84435;SHT30;74664;45.620;5.138;2024-03-02T13:56:21;16.17;48.34
84435;SHT30;74664;45.620;5.138;2024-03-02T13:58:49;16.15;48.28
84435;SHT30;74664;45.620;5.138;2024-03-02T14:01:18;16.14;48.27
84435;SHT30;74664;45.620;5.138;2024-03-02T14:03:53;16.14;47.88
84435;SHT30;74664;45.620;5.138;2024-03-02T14:06:21;16.11;48.29
84435;SHT30;74664;45.620;5.138;2024-03-02T14:08:47;16.11;48.14
84435;SHT30;74664;45.620;5.138;2024-03-02T14:11:18;16.10;48.24
84435;SHT30;74664;45.620;5.138;2024-03-02T14:13:45;16.05;48.55
84435;SHT30;74664;45.620;5.138;2024-03-02T14:16:15;16.07;48.25
84435;SHT30;74664;45.620;5.138;2024-03-02T14:18:54;16.07;48.46
84435;SHT30;74664;45.620;5.138;2024-03-02T14:21:21;16.05;48.57
84435;SHT30;74664;45.620;5.138;2024-03-02T14:23:48;16.05;48.32
84435;SHT30;74664;45.620;5.138;2024-03-02T14:26:15;16.04;48.71
84435;SHT30;74664;45.620;5.138;2024-03-02T14:28:43;16.01;48.65
84435;SHT30;74664;45.620;5.138;2024-03-02T14:31:10;16.00;48.62
84435;SHT30;74664;45.620;5.138;2024-03-02T14:33:36;16.00;48.73
84435;SHT30;74664;45.620;5.138;2024-03-02T14:36:06;15.98;48.89
84435;SHT30;74664;45.620;5.138;2024-03-02T14:38:36;15.94;48.84
84435;SHT30;74664;45.620;5.138;2024-03-02T14:41:03;15.91;48.69
84435;SHT30;74664;45.620;5.138;2024-03-02T14:43:30;15.90;49.00
84435;SHT30;74664;45.620;5.138;2024-03-02T14:45:58;15.87;49.29
84435;SHT30;74664;45.620;5.138;2024-03-02T14:48:25;15.86;49.46
84435;SHT30;74664;45.620;5.138;2024-03-02T14:50:52;15.90;49.31
84435;SHT30;74664;45.620;5.138;2024-03-02T14:53:19;15.90;49.31
84435;SHT30;74664;45.620;5.138;2024-03-02T14:55:45;15.89;49.47
84435;SHT30;74664;45.620;5.138;2024-03-02T14:58:12;15.89;49.33
84435;SHT30;74664;45.620;5.138;2024-03-02T15:00:39;15.89;49.35
84435;SHT30;74664;45.620;5.138;2024-03-02T15:03:09;15.87;49.53
84435;SHT30;74664;45.620;5.138;2024-03-02T15:05:49;15.86;49.65
84435;SHT30;74664;45.620;5.138;2024-03-02T15:08:17;15.86;49.68
84435;SHT30;74664;45.620;5.138;2024-03-02T15:10:43;15.84;49.83
84435;SHT30;74664;45.620;5.138;2024-03-02T15:13:10;15.83;50.02
84435;SHT30;74664;45.620;5.138;2024-03-02T15:15:37;15.84;49.95
84435;SHT30;74664;45.620;5.138;2024-03-02T15:18:05;15.84;50.03
84435;SHT30;74664;45.620;5.138;2024-03-02T15:20:33;15.87;49.89
84435;SHT30;74664;45.620;5.138;2024-03-02T15:22:59;15.87;50.03
84435;SHT30;74664;45.620;5.138;2024-03-02T15:25:25;15.89;50.17
84435;SHT30;74664;45.620;5.138;2024-03-02T15:27:52;15.87;50.22
84435;SHT30;74664;45.620;5.138;2024-03-02T15:30:19;15.87;49.86
84435;SHT30;74664;45.620;5.138;2024-03-02T15:32:45;15.84;49.86
84435;SHT30;74664;45.620;5.138;2024-03-02T15:35:12;15.87;50.00
84435;SHT30;74664;45.620;5.138;2024-03-02T15:37:40;15.84;49.09
84435;SHT30;74664;45.620;5.138;2024-03-02T15:40:08;15.84;49.45